createdAt,value
2018-07-19T00:00:32.139Z,7.13
2018-07-19T00:03:00.859Z,7.63
2018-07-19T00:05:29.277Z,7.30
2018-07-19T00:07:58.129Z,7.43
2018-07-19T00:10:27.049Z,7.43
2018-07-19T00:12:55.283Z,7.10
2018-07-19T00:15:24.225Z,9.10
2018-07-19T00:17:52.840Z,8.83
2018-07-19T00:20:21.659Z,8.93
2018-07-19T00:22:50.256Z,7.53
2018-07-19T00:25:18.786Z,8.43
2018-07-19T00:27:48.101Z,9.57
2018-07-19T00:30:16.888Z,10.17
2018-07-19T00:32:45.432Z,10.47
2018-07-19T00:35:14.047Z,11.50
2018-07-19T00:37:42.830Z,10.27
2018-07-19T00:40:11.425Z,10.83
2018-07-19T00:42:39.863Z,9.27
2018-07-19T00:45:09.733Z,9.97
2018-07-19T00:47:38.469Z,8.97
2018-07-19T00:50:07.308Z,9.10
2018-07-19T00:52:36.533Z,11.03
2018-07-19T00:55:05.315Z,11.20
2018-07-19T00:57:34.375Z,12.37
2018-07-19T01:00:03.021Z,13.57
2018-07-19T01:02:31.607Z,12.77
2018-07-19T01:05:00.554Z,11.73
2018-07-19T01:07:28.860Z,11.40
2018-07-19T01:09:57.055Z,10.60
2018-07-19T01:12:25.744Z,11.17
2018-07-19T01:14:54.697Z,11.37
2018-07-19T01:17:24.201Z,11.60
2018-07-19T01:19:52.951Z,10.30
2018-07-19T01:22:21.733Z,11.57
2018-07-19T01:24:50.580Z,12.30
2018-07-19T01:27:19.422Z,13.20
2018-07-19T01:29:48.722Z,12.23
2018-07-19T01:32:17.358Z,11.37
2018-07-19T01:34:46.009Z,11.70
2018-07-19T01:37:15.014Z,13.07
2018-07-19T01:39:43.887Z,13.97
2018-07-19T01:42:33.998Z,13.07
2018-07-19T01:45:02.591Z,14.70
2018-07-19T01:47:31.212Z,13.77
2018-07-19T01:50:00.219Z,13.90
2018-07-19T01:52:28.836Z,16.37
2018-07-19T01:54:57.888Z,15.47
2018-07-19T01:57:26.437Z,15.50
2018-07-19T01:59:55.373Z,16.47
2018-07-19T02:02:24.022Z,15.93
2018-07-19T02:04:52.560Z,15.83
2018-07-19T02:07:21.075Z,15.63
2018-07-19T02:09:49.721Z,13.30
2018-07-19T02:12:18.188Z,15.73
2018-07-19T02:14:47.278Z,16.60
2018-07-19T02:17:15.926Z,15.23
2018-07-19T02:19:44.811Z,16.77
2018-07-19T02:22:12.964Z,17.03
2018-07-19T02:24:41.795Z,16.70
2018-07-19T02:27:10.263Z,16.37
2018-07-19T02:29:38.849Z,15.77
2018-07-19T02:32:07.385Z,17.30
2018-07-19T02:34:36.189Z,17.17
2018-07-19T02:37:05.187Z,16.67
2018-07-19T02:39:33.694Z,16.27
2018-07-19T02:42:02.207Z,14.73
2018-07-19T02:44:31.198Z,16.73
2018-07-19T02:46:59.795Z,18.50
2018-07-19T02:49:28.400Z,16.83
2018-07-19T02:51:56.940Z,17.17
2018-07-19T02:54:25.675Z,17.93
2018-07-19T02:56:54.380Z,15.93
2018-07-19T02:59:23.069Z,17.30
2018-07-19T03:01:52.214Z,16.27
2018-07-19T03:04:21.093Z,16.87
2018-07-19T03:06:50.848Z,18.47
2018-07-19T03:09:19.889Z,15.37
2018-07-19T03:11:48.476Z,18.57
2018-07-19T03:14:17.021Z,17.20
2018-07-19T03:16:45.819Z,18.40
2018-07-19T03:19:15.533Z,17.50
2018-07-19T03:21:43.995Z,16.27
2018-07-19T03:24:12.820Z,16.83
2018-07-19T03:26:41.296Z,15.90
2018-07-19T03:29:09.781Z,19.23
2018-07-19T03:31:38.577Z,19.37
2018-07-19T03:34:07.032Z,16.33
2018-07-19T03:36:35.772Z,18.80
2018-07-19T03:39:06.068Z,15.23
2018-07-19T03:41:34.272Z,19.00
2018-07-19T03:44:02.805Z,18.67
2018-07-19T03:46:31.399Z,17.10
2018-07-19T03:48:59.956Z,17.60
2018-07-19T03:51:28.655Z,16.93
2018-07-19T03:53:57.746Z,18.23
2018-07-19T03:56:26.493Z,17.77
2018-07-19T03:58:55.396Z,17.70
2018-07-19T04:01:23.536Z,16.40
2018-07-19T04:03:51.956Z,16.33
2018-07-19T04:06:20.684Z,14.67
2018-07-19T04:08:49.459Z,16.73
2018-07-19T04:11:18.127Z,15.17
2018-07-19T04:13:47.215Z,16.63
2018-07-19T04:16:15.708Z,16.43
2018-07-19T04:18:44.150Z,17.30
2018-07-19T04:21:12.679Z,14.63
2018-07-19T04:23:41.266Z,13.47
2018-07-19T04:26:09.735Z,13.47
2018-07-19T04:28:38.213Z,14.53
2018-07-19T04:31:06.665Z,15.43
2018-07-19T04:33:35.587Z,14.10
2018-07-19T04:36:04.343Z,13.07
2018-07-19T04:38:33.637Z,12.63
2018-07-19T04:41:02.011Z,13.53
2018-07-19T04:43:30.910Z,13.57
2018-07-19T04:45:59.850Z,11.97
2018-07-19T04:48:28.910Z,13.23
2018-07-19T04:50:57.555Z,11.50
2018-07-19T04:53:26.500Z,10.80
2018-07-19T04:55:55.515Z,12.10
2018-07-19T04:58:24.491Z,12.43
2018-07-19T05:00:53.274Z,10.70
2018-07-19T05:03:22.038Z,10.10
2018-07-19T05:05:51.183Z,10.40
2018-07-19T05:08:19.926Z,10.00
2018-07-19T05:10:48.909Z,9.67
2018-07-19T05:13:17.482Z,10.77
2018-07-19T05:15:46.151Z,8.87
2018-07-19T05:18:14.673Z,10.03
2018-07-19T05:20:43.312Z,10.50
2018-07-19T05:23:12.027Z,9.07
2018-07-19T05:25:41.021Z,9.80
2018-07-19T05:28:09.737Z,8.10
2018-07-19T05:30:38.530Z,8.33
2018-07-19T05:33:07.068Z,7.67
2018-07-19T05:35:35.869Z,8.47
2018-07-19T05:38:04.821Z,8.53
2018-07-19T05:40:33.462Z,9.43
2018-07-19T05:43:01.877Z,7.90
2018-07-19T05:45:30.480Z,8.00
2018-07-19T05:47:58.861Z,7.07
2018-07-19T05:50:27.396Z,6.87
2018-07-19T05:52:56.063Z,6.47
2018-07-19T05:55:25.942Z,7.17
2018-07-19T05:57:54.480Z,6.97
2018-07-19T06:00:23.016Z,6.90
2018-07-19T06:02:52.145Z,6.00
2018-07-19T06:05:20.876Z,5.37
2018-07-19T06:07:49.677Z,5.80
2018-07-19T06:10:18.203Z,5.67
2018-07-19T06:12:46.372Z,5.33
2018-07-19T06:15:15.022Z,4.70
2018-07-19T06:17:43.554Z,5.23
2018-07-19T06:20:12.001Z,5.37
2018-07-19T06:22:40.201Z,5.43
2018-07-19T06:25:08.246Z,5.47
2018-07-19T06:27:36.608Z,5.20
2018-07-19T06:30:06.239Z,4.93
2018-07-19T06:32:35.079Z,4.50
2018-07-19T06:35:03.522Z,5.10
2018-07-19T06:37:32.085Z,5.10
2018-07-19T06:40:00.544Z,5.13
2018-07-19T06:42:28.885Z,4.70
2018-07-19T06:44:57.388Z,4.90
2018-07-19T06:47:25.787Z,4.07
2018-07-19T06:49:54.195Z,4.80
2018-07-19T06:52:22.662Z,5.80
2018-07-19T06:54:51.360Z,4.93
2018-07-19T06:57:19.749Z,4.90
2018-07-19T06:59:48.067Z,6.03
2018-07-19T07:02:16.491Z,5.77
2018-07-19T07:04:44.942Z,4.60
2018-07-19T07:07:13.417Z,5.13
2018-07-19T07:09:41.836Z,5.70
2018-07-19T07:12:10.214Z,5.10
2018-07-19T07:14:38.596Z,4.77
2018-07-19T07:17:07.007Z,5.07
2018-07-19T07:19:35.444Z,5.00
2018-07-19T07:22:03.885Z,4.80
2018-07-19T07:24:32.363Z,4.30
2018-07-19T07:27:00.845Z,3.83
2018-07-19T07:29:29.364Z,4.30
2018-07-19T07:31:57.842Z,3.93
2018-07-19T07:34:26.632Z,4.10
2018-07-19T07:36:55.120Z,3.40
2018-07-19T07:39:23.602Z,3.43
2018-07-19T07:41:52.114Z,3.50
2018-07-19T07:44:20.668Z,4.03
2018-07-19T07:46:49.223Z,3.33
2018-07-19T07:49:17.713Z,3.10
2018-07-19T07:51:46.217Z,2.80
2018-07-19T07:54:14.694Z,2.83
2018-07-19T07:56:43.048Z,3.63
2018-07-19T07:59:12.085Z,3.30
2018-07-19T08:01:40.440Z,3.90
2018-07-19T08:04:08.933Z,3.13
2018-07-19T08:06:37.333Z,3.17
2018-07-19T08:09:07.046Z,3.30
2018-07-19T08:11:35.415Z,2.73
2018-07-19T08:14:03.472Z,2.97
2018-07-19T08:16:31.973Z,2.23
2018-07-19T08:19:00.379Z,2.70
2018-07-19T08:21:28.499Z,2.90
2018-07-19T08:23:57.111Z,3.43
2018-07-19T08:26:25.481Z,2.80
2018-07-19T08:28:53.825Z,2.80
2018-07-19T08:31:22.280Z,3.80
2018-07-19T08:33:50.722Z,2.97
2018-07-19T08:36:18.947Z,3.03
2018-07-19T08:38:47.380Z,3.63
2018-07-19T08:41:15.718Z,2.87
2018-07-19T08:43:44.085Z,2.60
2018-07-19T08:46:12.203Z,2.50
2018-07-19T08:48:40.555Z,2.27
2018-07-19T08:51:08.623Z,2.33
2018-07-19T08:53:36.971Z,2.20
2018-07-19T08:56:05.496Z,2.20
2018-07-19T08:58:33.613Z,1.93
2018-07-19T09:01:01.670Z,2.70
2018-07-19T09:03:30.009Z,2.20
2018-07-19T09:05:58.319Z,2.10
2018-07-19T09:08:26.628Z,2.10
2018-07-19T09:10:55.080Z,1.80
2018-07-19T09:13:23.412Z,1.90
2018-07-19T09:15:51.802Z,2.00
2018-07-19T09:18:20.161Z,2.07
2018-07-19T09:20:48.524Z,1.80
2018-07-19T09:23:17.141Z,2.17
2018-07-19T09:25:45.477Z,2.07
2018-07-19T09:28:13.792Z,1.90
2018-07-19T09:30:41.854Z,2.20
2018-07-19T09:33:10.276Z,2.10
2018-07-19T09:35:38.700Z,1.70
2018-07-19T09:38:06.996Z,1.60
2018-07-19T09:40:35.754Z,1.50
2018-07-19T09:43:04.146Z,1.93
2018-07-19T09:45:32.458Z,2.50
2018-07-19T09:48:00.783Z,1.47
2018-07-19T09:50:29.057Z,1.43
2018-07-19T09:52:57.399Z,1.50
2018-07-19T09:55:25.424Z,1.70
2018-07-19T09:57:54.001Z,1.70
2018-07-19T10:00:27.652Z,1.60
2018-07-19T10:02:55.997Z,1.80
2018-07-19T10:05:24.293Z,1.40
2018-07-19T10:07:52.616Z,1.57
2018-07-19T10:10:21.008Z,1.70
2018-07-19T10:12:49.345Z,1.80
2018-07-19T10:15:17.644Z,1.87
2018-07-19T10:17:45.929Z,1.60
2018-07-19T10:20:14.212Z,1.53
2018-07-19T10:22:42.588Z,1.60
2018-07-19T10:25:10.655Z,1.30
2018-07-19T10:27:38.984Z,1.63
2018-07-19T10:30:08.189Z,1.77
2018-07-19T10:32:36.647Z,1.47
2018-07-19T10:35:05.205Z,1.50
2018-07-19T10:37:33.569Z,1.60
2018-07-19T10:40:01.848Z,1.80
2018-07-19T10:42:30.218Z,1.50
2018-07-19T10:44:58.798Z,1.30
2018-07-19T10:47:27.147Z,1.60
2018-07-19T10:49:55.570Z,1.40
2018-07-19T10:52:23.891Z,1.20
2018-07-19T10:54:52.371Z,1.40
2018-07-19T10:57:20.695Z,1.70
2018-07-19T10:59:48.691Z,1.60
2018-07-19T11:02:17.028Z,1.60
2018-07-19T11:04:45.395Z,1.60
2018-07-19T11:07:13.693Z,1.80
2018-07-19T11:09:42.096Z,1.60
2018-07-19T11:12:10.060Z,2.10
2018-07-19T11:14:38.345Z,1.43
2018-07-19T11:17:06.621Z,1.60
2018-07-19T11:19:34.911Z,1.30
2018-07-19T11:22:03.164Z,1.57
2018-07-19T11:24:31.434Z,1.00
2018-07-19T11:26:59.736Z,1.23
2018-07-19T11:29:28.054Z,1.37
2018-07-19T11:31:56.374Z,1.33
2018-07-19T11:34:24.940Z,1.10
2018-07-19T11:36:53.593Z,1.20
2018-07-19T11:39:21.869Z,1.20
2018-07-19T11:41:50.184Z,1.10
2018-07-19T11:44:18.467Z,1.20
2018-07-19T11:46:47.027Z,1.07
2018-07-19T11:49:15.305Z,1.23
2018-07-19T11:51:43.580Z,1.30
2018-07-19T11:54:11.900Z,1.20
2018-07-19T11:56:40.216Z,1.10
2018-07-19T11:59:08.466Z,1.13
2018-07-19T12:01:36.747Z,0.97
2018-07-19T12:04:05.075Z,1.00
2018-07-19T12:06:33.465Z,0.80
2018-07-19T12:09:01.749Z,1.00
2018-07-19T12:11:30.065Z,1.10
2018-07-19T12:13:58.381Z,1.30
2018-07-19T12:16:26.910Z,0.90
2018-07-19T12:18:55.494Z,1.00
2018-07-19T12:21:23.974Z,1.23
2018-07-19T12:23:52.296Z,1.00
2018-07-19T12:26:20.583Z,1.10
2018-07-19T12:28:48.922Z,0.87
2018-07-19T12:31:17.380Z,0.70
2018-07-19T12:33:45.637Z,0.60
2018-07-19T12:36:21.272Z,0.90
2018-07-19T12:38:49.577Z,0.70
2018-07-19T12:41:17.857Z,0.87
2018-07-19T12:43:46.113Z,0.90
2018-07-19T12:46:14.420Z,1.27
2018-07-19T12:48:42.660Z,1.07
2018-07-19T12:51:10.983Z,0.90
2018-07-19T12:53:39.260Z,1.00
2018-07-19T12:56:07.949Z,0.83
2018-07-19T12:58:36.261Z,0.77
2018-07-19T13:01:04.285Z,0.77
2018-07-19T13:03:32.647Z,1.07
2018-07-19T13:06:00.921Z,0.80
2018-07-19T13:08:29.212Z,1.37
2018-07-19T13:10:57.262Z,1.10
2018-07-19T13:13:25.624Z,1.30
2018-07-19T13:15:53.891Z,0.80
2018-07-19T13:18:22.276Z,0.97
2018-07-19T13:20:50.567Z,1.00
2018-07-19T13:23:18.837Z,0.60
2018-07-19T13:25:47.114Z,1.00
2018-07-19T13:28:15.108Z,1.00
2018-07-19T13:30:43.126Z,1.00
2018-07-19T13:33:11.442Z,1.00
2018-07-19T13:35:40.574Z,1.00
2018-07-19T13:38:08.877Z,0.90
2018-07-19T13:40:36.935Z,0.87
2018-07-19T13:43:05.195Z,1.10
2018-07-19T13:45:33.492Z,1.10
2018-07-19T13:48:01.782Z,0.90
2018-07-19T13:50:30.386Z,1.13
2018-07-19T13:53:15.691Z,1.17
2018-07-19T13:55:44.006Z,0.80
2018-07-19T13:58:12.290Z,1.20
2018-07-19T14:00:40.621Z,1.03
2018-07-19T14:03:08.877Z,1.10
2018-07-19T14:05:39.222Z,1.10
2018-07-19T14:08:07.486Z,1.20
2018-07-19T14:10:35.837Z,1.20
2018-07-19T14:13:04.167Z,1.20
2018-07-19T14:15:32.216Z,1.20
2018-07-19T14:18:00.497Z,1.20
2018-07-19T14:20:28.793Z,2.00
2018-07-19T14:22:57.108Z,2.40
2018-07-19T14:25:25.179Z,1.20
2018-07-19T14:27:53.495Z,1.20
2018-07-19T14:30:21.811Z,1.40
2018-07-19T14:32:50.173Z,1.27
2018-07-19T14:35:18.202Z,1.30
2018-07-19T14:37:46.540Z,1.40
2018-07-19T14:40:14.573Z,1.43
2018-07-19T14:42:42.871Z,1.50
2018-07-19T14:45:11.378Z,1.77
2018-07-19T14:47:39.700Z,1.30
2018-07-19T14:50:07.717Z,1.53
2018-07-19T14:52:36.097Z,1.53
2018-07-19T14:55:04.606Z,1.43
2018-07-19T14:57:32.852Z,1.40
2018-07-19T15:00:00.893Z,1.77
2018-07-19T15:02:29.212Z,1.27
2018-07-19T15:04:57.708Z,1.37
2018-07-19T15:07:25.965Z,1.60
2018-07-19T15:09:54.246Z,1.73
2018-07-19T15:12:22.641Z,1.83
2018-07-19T15:14:51.070Z,1.90
2018-07-19T15:17:19.155Z,1.50
2018-07-19T15:19:47.173Z,1.53
2018-07-19T15:22:15.472Z,1.70
2018-07-19T15:24:43.807Z,1.47
2018-07-19T15:27:16.501Z,1.83
2018-07-19T15:29:56.482Z,1.70
2018-07-19T15:32:25.005Z,1.47
2018-07-19T15:34:53.075Z,1.63
2018-07-19T15:37:21.584Z,1.90
2018-07-19T15:39:50.045Z,1.77
2018-07-19T15:42:18.301Z,1.77
2018-07-19T15:44:46.750Z,1.70
2018-07-19T15:47:15.062Z,1.60
2018-07-19T15:49:43.353Z,1.63
2018-07-19T15:52:11.645Z,1.40
2018-07-19T15:54:39.962Z,1.53
2018-07-19T15:57:07.987Z,1.70
2018-07-19T15:59:49.467Z,1.60
2018-07-19T16:02:17.796Z,2.20
2018-07-19T16:04:46.352Z,1.73
2018-07-19T16:07:15.115Z,1.57
2018-07-19T16:09:43.728Z,1.37
2018-07-19T16:12:11.747Z,3.13
2018-07-19T16:14:40.368Z,1.87
2018-07-19T16:17:08.718Z,1.90
2018-07-19T16:19:37.110Z,2.47
2018-07-19T16:22:05.570Z,4.33
2018-07-19T16:24:34.277Z,3.50
2018-07-19T16:27:02.303Z,1.90
2018-07-19T16:29:30.581Z,1.70
2018-07-19T16:31:58.941Z,1.57
2018-07-19T16:34:27.120Z,2.93
2018-07-19T16:36:55.659Z,2.10
2018-07-19T16:39:23.982Z,11.97
2018-07-19T16:41:52.336Z,19.67
2018-07-19T16:44:20.697Z,75.63
2018-07-19T16:46:48.996Z,32.43
2018-07-19T16:49:17.386Z,122.53
2018-07-19T16:51:45.679Z,69.57
2018-07-19T16:54:14.453Z,98.97
2018-07-19T16:56:47.052Z,28.57
2018-07-19T16:59:15.383Z,46.60
2018-07-19T17:01:43.689Z,7.93
2018-07-19T17:04:12.068Z,57.30
2018-07-19T17:06:40.384Z,42.17
2018-07-19T17:09:09.871Z,12.53
2018-07-19T17:11:38.208Z,3.70
2018-07-19T17:14:07.159Z,6.10
2018-07-19T17:16:35.556Z,6.23
2018-07-19T17:19:03.624Z,1.70
2018-07-19T17:21:31.951Z,1.70
2018-07-19T17:24:00.264Z,3.73
2018-07-19T17:26:28.302Z,3.93
2018-07-19T17:28:57.161Z,11.13
2018-07-19T17:31:25.563Z,12.07
2018-07-19T17:33:53.896Z,5.03
2018-07-19T17:36:22.193Z,1.83
2018-07-19T17:38:50.661Z,1.70
2018-07-19T17:41:18.970Z,2.63
2018-07-19T17:43:47.609Z,2.70
2018-07-19T17:46:15.605Z,2.53
2018-07-19T17:48:43.881Z,2.33
2018-07-19T17:51:12.152Z,3.17
2018-07-19T17:53:40.483Z,3.50
2018-07-19T17:56:08.784Z,2.83
2018-07-19T17:58:37.059Z,2.07
2018-07-19T18:01:05.337Z,3.07
2018-07-19T18:03:34.075Z,2.00
2018-07-19T18:06:02.467Z,2.67
2018-07-19T18:08:30.911Z,3.00
2018-07-19T18:10:58.996Z,2.50
2018-07-19T18:13:27.549Z,2.40
2018-07-19T18:15:55.880Z,2.70
2018-07-19T18:18:24.245Z,2.97
2018-07-19T18:20:52.585Z,2.90
2018-07-19T18:23:20.868Z,2.67
2018-07-19T18:25:49.284Z,2.60
2018-07-19T18:28:17.649Z,2.57
2018-07-19T18:30:46.007Z,2.40
2018-07-19T18:33:14.132Z,2.53
2018-07-19T18:35:42.513Z,2.27
2018-07-19T18:38:11.068Z,1.90
2018-07-19T18:40:39.299Z,2.87
2018-07-19T18:43:08.642Z,2.30
2018-07-19T18:45:37.129Z,3.03
2018-07-19T18:48:05.771Z,2.80
2018-07-19T18:50:33.879Z,2.67
2018-07-19T18:53:02.489Z,2.33
2018-07-19T18:55:30.939Z,2.53
2018-07-19T18:57:58.977Z,2.27
2018-07-19T19:00:27.364Z,2.33
2018-07-19T19:02:56.145Z,3.00
2018-07-19T19:05:24.551Z,2.27
2018-07-19T19:07:53.149Z,2.23
2018-07-19T19:10:21.632Z,2.60
2018-07-19T19:12:50.132Z,3.40
2018-07-19T19:15:18.696Z,2.50
2018-07-19T19:17:46.735Z,2.80
2018-07-19T19:20:15.162Z,2.70
2018-07-19T19:22:43.277Z,2.67
2018-07-19T19:25:11.576Z,2.60
2018-07-19T19:27:40.002Z,2.67
2018-07-19T19:30:08.616Z,2.20
2018-07-19T19:32:36.946Z,2.63
2018-07-19T19:35:05.392Z,2.33
2018-07-19T19:37:33.833Z,2.33
2018-07-19T19:40:02.412Z,3.00
2018-07-19T19:42:31.020Z,2.50
2018-07-19T19:44:59.464Z,2.60
2018-07-19T19:47:28.056Z,2.50
2018-07-19T19:49:56.624Z,2.73
2018-07-19T19:52:25.148Z,3.03
2018-07-19T19:54:53.638Z,2.33
2018-07-19T19:57:21.738Z,2.83
2018-07-19T19:59:50.088Z,2.90
2018-07-19T20:02:18.493Z,2.60
2018-07-19T20:04:47.157Z,3.20
2018-07-19T20:07:15.686Z,2.93
2018-07-19T20:09:44.167Z,2.70
2018-07-19T20:12:12.575Z,2.70
2018-07-19T20:14:41.087Z,2.97
2018-07-19T20:17:09.473Z,2.73
2018-07-19T20:19:37.944Z,3.60
2018-07-19T20:22:06.509Z,2.83
2018-07-19T20:24:34.844Z,3.07
2018-07-19T20:27:03.220Z,2.60
2018-07-19T20:29:31.640Z,3.20
2018-07-19T20:31:59.799Z,2.70
2018-07-19T20:34:28.397Z,2.90
2018-07-19T20:36:56.942Z,3.13
2018-07-19T20:39:25.649Z,3.30
2018-07-19T20:41:54.214Z,2.83
2018-07-19T20:44:22.837Z,3.00
2018-07-19T20:46:51.631Z,2.87
2018-07-19T20:49:20.115Z,3.17
2018-07-19T20:51:48.547Z,3.30
2018-07-19T20:54:17.297Z,2.87
2018-07-19T20:56:46.080Z,3.20
2018-07-19T20:59:14.823Z,3.03
2018-07-19T21:01:43.278Z,3.73
2018-07-19T21:04:11.597Z,3.00
2018-07-19T21:06:39.992Z,2.93
2018-07-19T21:09:09.905Z,3.70
2018-07-19T21:11:39.192Z,2.80
2018-07-19T21:14:07.705Z,3.50
2018-07-19T21:16:35.927Z,3.70
2018-07-19T21:19:04.533Z,3.30
2018-07-19T21:21:32.880Z,3.67
2018-07-19T21:24:01.077Z,3.37
2018-07-19T21:26:29.781Z,3.17
2018-07-19T21:28:59.277Z,3.67
2018-07-19T21:31:27.435Z,3.13
2018-07-19T21:33:57.321Z,3.60
2018-07-19T21:36:26.131Z,3.00
2018-07-19T21:38:55.183Z,3.73
2018-07-19T21:41:24.263Z,3.37
2018-07-19T21:43:52.840Z,3.53
2018-07-19T21:46:21.283Z,3.43
2018-07-19T21:48:49.817Z,3.50
2018-07-19T21:51:18.371Z,3.10
2018-07-19T21:53:46.997Z,3.70
2018-07-19T21:56:15.522Z,3.83
2018-07-19T21:58:43.997Z,3.87
2018-07-19T22:01:12.853Z,3.57
2018-07-19T22:03:41.646Z,3.50
2018-07-19T22:06:10.975Z,3.30
2018-07-19T22:08:39.209Z,2.97
2018-07-19T22:11:08.222Z,3.03
2018-07-19T22:13:37.143Z,3.00
2018-07-19T22:16:05.710Z,3.63
2018-07-19T22:18:34.430Z,3.43
2018-07-19T22:21:03.638Z,3.73
2018-07-19T22:23:32.765Z,3.47
2018-07-19T22:26:02.154Z,3.03
2018-07-19T22:28:31.120Z,3.30
2018-07-19T22:31:00.301Z,3.67
2018-07-19T22:33:29.075Z,3.23
2018-07-19T22:35:58.465Z,4.10
2018-07-19T22:38:28.297Z,3.70
2018-07-19T22:40:58.928Z,3.60
2018-07-19T22:43:28.200Z,3.33
2018-07-19T22:45:56.619Z,3.20
2018-07-19T22:48:25.342Z,3.30
2018-07-19T22:50:53.801Z,3.63
2018-07-19T22:53:22.725Z,4.20
2018-07-19T22:55:51.321Z,3.63
2018-07-19T22:58:20.365Z,3.90
2018-07-19T23:00:49.168Z,3.93
2018-07-19T23:03:17.570Z,3.90
2018-07-19T23:05:46.320Z,4.27
2018-07-19T23:08:15.133Z,3.70
2018-07-19T23:10:44.236Z,4.20
2018-07-19T23:13:12.743Z,3.50
2018-07-19T23:15:41.344Z,3.70
2018-07-19T23:18:10.646Z,3.83
2018-07-19T23:20:39.499Z,3.97
2018-07-19T23:23:08.976Z,4.13
2018-07-19T23:25:37.417Z,4.43
2018-07-19T23:28:05.715Z,4.63
2018-07-19T23:30:35.775Z,4.27
2018-07-19T23:33:04.524Z,3.43
2018-07-19T23:45:16.019Z,4.23
2018-07-19T23:47:45.551Z,4.10
2018-07-19T23:50:14.302Z,3.60
2018-07-19T23:52:42.859Z,4.90
2018-07-19T23:55:11.368Z,4.57
2018-07-19T23:57:39.783Z,4.33
